sensor_id;sensor_type;location;lat;lon;timestamp;temperature;humidity
70676;DHT22;59069;52.242;20.900;2023-03-20T00:00:38;8.81;51.94
70676;DHT22;59069;52.242;20.900;2023-03-20T00:03:05;8.79;51.99
70676;DHT22;59069;52.242;20.900;2023-03-20T00:05:31;8.76;52.09
70676;DHT22;59069;52.242;20.900;2023-03-20T00:07:57;8.72;52.20
70676;DHT22;59069;52.242;20.900;2023-03-20T00:10:35;8.67;52.33
70676;DHT22;59069;52.242;20.900;2023-03-20T00:13:04;8.62;52.47
70676;DHT22;59069;52.242;20.900;2023-03-20T00:15:38;8.57;52.54
70676;DHT22;59069;52.242;20.900;2023-03-20T00:18:16;8.56;52.81
70676;DHT22;59069;52.242;20.900;2023-03-20T00:20:46;8.50;52.86
70676;DHT22;59069;52.242;20.900;2023-03-20T00:23:12;8.46;53.03
70676;DHT22;59069;52.242;20.900;2023-03-20T00:25:39;8.46;53.15
70676;DHT22;59069;52.242;20.900;2023-03-20T00:30:56;8.39;53.45
70676;DHT22;59069;52.242;20.900;2023-03-20T00:33:22;8.35;53.55
70676;DHT22;59069;52.242;20.900;2023-03-20T00:35:48;8.31;53.73
70676;DHT22;59069;52.242;20.900;2023-03-20T00:38:13;8.31;53.90
70676;DHT22;59069;52.242;20.900;2023-03-20T00:40:39;8.26;54.00
70676;DHT22;59069;52.242;20.900;2023-03-20T00:43:05;8.24;54.04
70676;DHT22;59069;52.242;20.900;2023-03-20T00:45:32;8.24;54.11
70676;DHT22;59069;52.242;20.900;2023-03-20T00:47:59;8.20;54.29
70676;DHT22;59069;52.242;20.900;2023-03-20T00:50:27;8.18;54.41
70676;DHT22;59069;52.242;20.900;2023-03-20T00:52:56;8.15;54.39
70676;DHT22;59069;52.242;20.900;2023-03-20T00:55:23;8.11;54.53
70676;DHT22;59069;52.242;20.900;2023-03-20T00:57:54;8.07;54.63
70676;DHT22;59069;52.242;20.900;2023-03-20T01:02:56;7.98;54.82
70676;DHT22;59069;52.242;20.900;2023-03-20T01:05:25;7.99;55.01
70676;DHT22;59069;52.242;20.900;2023-03-20T01:07:51;7.93;55.10
70676;DHT22;59069;52.242;20.900;2023-03-20T01:10:17;7.94;55.08
70676;DHT22;59069;52.242;20.900;2023-03-20T01:12:43;7.91;55.22
70676;DHT22;59069;52.242;20.900;2023-03-20T01:15:24;7.84;55.43
70676;DHT22;59069;52.242;20.900;2023-03-20T01:17:51;7.83;55.56
70676;DHT22;59069;52.242;20.900;2023-03-20T01:20:23;7.77;55.70
70676;DHT22;59069;52.242;20.900;2023-03-20T01:22:50;7.74;55.84
70676;DHT22;59069;52.242;20.900;2023-03-20T01:25:16;7.71;55.91
70676;DHT22;59069;52.242;20.900;2023-03-20T01:27:50;7.69;56.12
70676;DHT22;59069;52.242;20.900;2023-03-20T01:30:28;7.67;56.18
70676;DHT22;59069;52.242;20.900;2023-03-20T01:32:54;7.66;56.12
70676;DHT22;59069;52.242;20.900;2023-03-20T01:35:22;7.66;56.28
70676;DHT22;59069;52.242;20.900;2023-03-20T01:37:49;7.63;56.23
70676;DHT22;59069;52.242;20.900;2023-03-20T01:43:26;7.59;56.49
70676;DHT22;59069;52.242;20.900;2023-03-20T01:51:24;7.50;57.03
70676;DHT22;59069;52.242;20.900;2023-03-20T01:54:06;7.50;57.12
70676;DHT22;59069;52.242;20.900;2023-03-20T01:56:39;7.44;57.19
70676;DHT22;59069;52.242;20.900;2023-03-20T02:01:55;7.34;57.58
70676;DHT22;59069;52.242;20.900;2023-03-20T02:04:26;7.36;57.62
70676;DHT22;59069;52.242;20.900;2023-03-20T02:06:54;7.33;57.66
70676;DHT22;59069;52.242;20.900;2023-03-20T02:09:19;7.36;57.72
70676;DHT22;59069;52.242;20.900;2023-03-20T02:11:45;7.34;57.85
70676;DHT22;59069;52.242;20.900;2023-03-20T02:14:12;7.34;57.88
70676;DHT22;59069;52.242;20.900;2023-03-20T02:16:38;7.32;57.86
70676;DHT22;59069;52.242;20.900;2023-03-20T02:19:04;7.32;57.76
70676;DHT22;59069;52.242;20.900;2023-03-20T02:24:50;7.33;57.52
70676;DHT22;59069;52.242;20.900;2023-03-20T02:41:46;7.27;57.79
70676;DHT22;59069;52.242;20.900;2023-03-20T02:44:30;7.26;57.90
70676;DHT22;59069;52.242;20.900;2023-03-20T02:55:16;7.13;58.31
70676;DHT22;59069;52.242;20.900;2023-03-20T02:57:49;7.11;58.37
70676;DHT22;59069;52.242;20.900;2023-03-20T03:00:46;7.06;58.42
70676;DHT22;59069;52.242;20.900;2023-03-20T03:06:38;6.99;58.61
70676;DHT22;59069;52.242;20.900;2023-03-20T03:09:30;6.98;58.74
70676;DHT22;59069;52.242;20.900;2023-03-20T03:12:02;6.91;58.87
70676;DHT22;59069;52.242;20.900;2023-03-20T03:14:42;6.91;59.05
70676;DHT22;59069;52.242;20.900;2023-03-20T03:17:10;6.87;59.13
70676;DHT22;59069;52.242;20.900;2023-03-20T03:19:38;6.84;59.21
70676;DHT22;59069;52.242;20.900;2023-03-20T03:22:07;6.81;59.32
70676;DHT22;59069;52.242;20.900;2023-03-20T03:24:36;6.77;59.51
70676;DHT22;59069;52.242;20.900;2023-03-20T03:27:08;6.75;59.81
70676;DHT22;59069;52.242;20.900;2023-03-20T03:29:37;6.75;59.95
70676;DHT22;59069;52.242;20.900;2023-03-20T03:32:06;6.72;59.89
70676;DHT22;59069;52.242;20.900;2023-03-20T03:34:33;6.71;59.88
70676;DHT22;59069;52.242;20.900;2023-03-20T03:37:08;6.72;59.97
70676;DHT22;59069;52.242;20.900;2023-03-20T03:39:39;6.68;60.15
70676;DHT22;59069;52.242;20.900;2023-03-20T03:45:36;6.63;60.26
70676;DHT22;59069;52.242;20.900;2023-03-20T03:48:06;6.64;60.30
70676;DHT22;59069;52.242;20.900;2023-03-20T03:50:41;6.58;60.52
70676;DHT22;59069;52.242;20.900;2023-03-20T03:53:14;6.54;60.69
70676;DHT22;59069;52.242;20.900;2023-03-20T03:55:44;6.52;60.77
70676;DHT22;59069;52.242;20.900;2023-03-20T03:58:20;6.52;60.88
70676;DHT22;59069;52.242;20.900;2023-03-20T04:00:48;6.52;61.01
70676;DHT22;59069;52.242;20.900;2023-03-20T04:03:18;6.48;61.21
70676;DHT22;59069;52.242;20.900;2023-03-20T04:05:46;6.47;61.23
70676;DHT22;59069;52.242;20.900;2023-03-20T04:08:13;6.47;61.10
70676;DHT22;59069;52.242;20.900;2023-03-20T04:10:38;6.48;61.09
70676;DHT22;59069;52.242;20.900;2023-03-20T04:13:04;6.48;60.99
70676;DHT22;59069;52.242;20.900;2023-03-20T04:15:29;6.48;60.99
70676;DHT22;59069;52.242;20.900;2023-03-20T04:17:55;6.50;60.91
70676;DHT22;59069;52.242;20.900;2023-03-20T04:20:21;6.52;60.85
70676;DHT22;59069;52.242;20.900;2023-03-20T04:22:47;6.50;60.83
70676;DHT22;59069;52.242;20.900;2023-03-20T04:25:23;6.51;60.86
70676;DHT22;59069;52.242;20.900;2023-03-20T04:27:50;6.48;60.86
70676;DHT22;59069;52.242;20.900;2023-03-20T04:30:16;6.48;60.95
70676;DHT22;59069;52.242;20.900;2023-03-20T04:32:42;6.47;60.86
70676;DHT22;59069;52.242;20.900;2023-03-20T04:35:08;6.44;60.86
70676;DHT22;59069;52.242;20.900;2023-03-20T04:37:33;6.45;60.88
70676;DHT22;59069;52.242;20.900;2023-03-20T04:39:59;6.43;60.88
70676;DHT22;59069;52.242;20.900;2023-03-20T04:42:24;6.41;61.05
70676;DHT22;59069;52.242;20.900;2023-03-20T04:44:50;6.40;61.01
70676;DHT22;59069;52.242;20.900;2023-03-20T04:47:15;6.40;60.98
70676;DHT22;59069;52.242;20.900;2023-03-20T04:49:41;6.40;61.08
70676;DHT22;59069;52.242;20.900;2023-03-20T04:52:07;6.36;61.12
70676;DHT22;59069;52.242;20.900;2023-03-20T04:54:32;6.36;61.28
70676;DHT22;59069;52.242;20.900;2023-03-20T04:56:58;6.36;61.25
70676;DHT22;59069;52.242;20.900;2023-03-20T04:59:23;6.36;61.29
70676;DHT22;59069;52.242;20.900;2023-03-20T05:01:49;6.37;61.34
70676;DHT22;59069;52.242;20.900;2023-03-20T05:04:14;6.40;61.37
70676;DHT22;59069;52.242;20.900;2023-03-20T05:06:40;6.38;61.40
70676;DHT22;59069;52.242;20.900;2023-03-20T05:09:05;6.40;61.41
70676;DHT22;59069;52.242;20.900;2023-03-20T05:11:31;6.41;61.43
70676;DHT22;59069;52.242;20.900;2023-03-20T05:13:56;6.43;61.45
70676;DHT22;59069;52.242;20.900;2023-03-20T05:16:22;6.47;61.48
70676;DHT22;59069;52.242;20.900;2023-03-20T05:18:48;6.48;61.41
70676;DHT22;59069;52.242;20.900;2023-03-20T05:21:13;6.51;61.46
70676;DHT22;59069;52.242;20.900;2023-03-20T05:23:39;6.55;61.44
70676;DHT22;59069;52.242;20.900;2023-03-20T05:26:05;6.58;61.44
70676;DHT22;59069;52.242;20.900;2023-03-20T05:28:31;6.64;61.58
70676;DHT22;59069;52.242;20.900;2023-03-20T05:30:57;6.67;61.58
70676;DHT22;59069;52.242;20.900;2023-03-20T05:33:22;6.72;61.54
70676;DHT22;59069;52.242;20.900;2023-03-20T05:35:48;6.78;61.42
70676;DHT22;59069;52.242;20.900;2023-03-20T05:38:13;6.82;61.41
70676;DHT22;59069;52.242;20.900;2023-03-20T05:40:39;6.89;61.34
70676;DHT22;59069;52.242;20.900;2023-03-20T05:43:06;6.91;61.35
70676;DHT22;59069;52.242;20.900;2023-03-20T05:45:32;6.98;61.20
70676;DHT22;59069;52.242;20.900;2023-03-20T05:47:58;7.05;61.23
70676;DHT22;59069;52.242;20.900;2023-03-20T05:50:23;7.12;61.19
70676;DHT22;59069;52.242;20.900;2023-03-20T05:52:49;7.19;61.19
70676;DHT22;59069;52.242;20.900;2023-03-20T05:55:15;7.32;60.86
70676;DHT22;59069;52.242;20.900;2023-03-20T05:57:40;7.39;60.53
70676;DHT22;59069;52.242;20.900;2023-03-20T06:00:07;7.46;60.24
70676;DHT22;59069;52.242;20.900;2023-03-20T06:02:35;7.53;60.08
70676;DHT22;59069;52.242;20.900;2023-03-20T06:05:01;7.60;60.06
70676;DHT22;59069;52.242;20.900;2023-03-20T06:07:26;7.70;60.03
70676;DHT22;59069;52.242;20.900;2023-03-20T06:09:52;7.78;59.86
70676;DHT22;59069;52.242;20.900;2023-03-20T06:12:17;7.91;59.59
70676;DHT22;59069;52.242;20.900;2023-03-20T06:14:43;8.05;59.49
70676;DHT22;59069;52.242;20.900;2023-03-20T06:17:08;8.20;59.10
70676;DHT22;59069;52.242;20.900;2023-03-20T06:19:34;8.34;59.05
70676;DHT22;59069;52.242;20.900;2023-03-20T06:22:01;8.49;58.36
70676;DHT22;59069;52.242;20.900;2023-03-20T06:24:26;8.65;58.24
70676;DHT22;59069;52.242;20.900;2023-03-20T06:26:52;8.81;57.70
70676;DHT22;59069;52.242;20.900;2023-03-20T06:29:18;9.00;57.58
70676;DHT22;59069;52.242;20.900;2023-03-20T06:31:43;9.24;57.39
70676;DHT22;59069;52.242;20.900;2023-03-20T06:34:09;9.45;56.77
70676;DHT22;59069;52.242;20.900;2023-03-20T06:36:34;9.68;56.43
70676;DHT22;59069;52.242;20.900;2023-03-20T06:39:01;9.92;55.99
70676;DHT22;59069;52.242;20.900;2023-03-20T06:41:27;10.10;54.26
70676;DHT22;59069;52.242;20.900;2023-03-20T06:43:53;10.29;54.28
70676;DHT22;59069;52.242;20.900;2023-03-20T06:46:19;10.49;54.13
70676;DHT22;59069;52.242;20.900;2023-03-20T06:48:45;10.71;54.22
70676;DHT22;59069;52.242;20.900;2023-03-20T06:51:11;10.94;52.92
70676;DHT22;59069;52.242;20.900;2023-03-20T06:53:37;11.09;52.91
70676;DHT22;59069;52.242;20.900;2023-03-20T06:56:04;11.16;51.01
70676;DHT22;59069;52.242;20.900;2023-03-20T06:58:29;11.08;50.35
70676;DHT22;59069;52.242;20.900;2023-03-20T07:00:55;11.05;50.65
70676;DHT22;59069;52.242;20.900;2023-03-20T07:03:21;10.94;50.96
70676;DHT22;59069;52.242;20.900;2023-03-20T07:05:47;10.84;51.57
70676;DHT22;59069;52.242;20.900;2023-03-20T07:08:12;10.82;52.31
70676;DHT22;59069;52.242;20.900;2023-03-20T07:10:39;10.84;52.94
70676;DHT22;59069;52.242;20.900;2023-03-20T07:13:05;10.87;52.97
70676;DHT22;59069;52.242;20.900;2023-03-20T07:15:30;10.95;53.56
70676;DHT22;59069;52.242;20.900;2023-03-20T07:17:56;11.01;53.80
70676;DHT22;59069;52.242;20.900;2023-03-20T07:20:22;11.12;54.04
70676;DHT22;59069;52.242;20.900;2023-03-20T07:22:48;11.23;53.61
70676;DHT22;59069;52.242;20.900;2023-03-20T07:25:13;11.42;53.89
70676;DHT22;59069;52.242;20.900;2023-03-20T07:27:39;11.56;53.65
70676;DHT22;59069;52.242;20.900;2023-03-20T07:30:06;11.70;53.03
70676;DHT22;59069;52.242;20.900;2023-03-20T07:32:33;11.73;52.30
70676;DHT22;59069;52.242;20.900;2023-03-20T07:34:59;11.73;52.71
70676;DHT22;59069;52.242;20.900;2023-03-20T07:37:25;11.79;53.14
70676;DHT22;59069;52.242;20.900;2023-03-20T07:39:50;11.87;52.59
70676;DHT22;59069;52.242;20.900;2023-03-20T07:42:16;11.84;52.12
70676;DHT22;59069;52.242;20.900;2023-03-20T07:44:42;11.77;52.25
70676;DHT22;59069;52.242;20.900;2023-03-20T07:47:07;11.70;52.78
70676;DHT22;59069;52.242;20.900;2023-03-20T07:49:33;11.63;52.86
70676;DHT22;59069;52.242;20.900;2023-03-20T07:51:59;11.58;53.21
70676;DHT22;59069;52.242;20.900;2023-03-20T07:54:24;11.60;53.54
70676;DHT22;59069;52.242;20.900;2023-03-20T07:56:50;11.72;53.83
70676;DHT22;59069;52.242;20.900;2023-03-20T07:59:17;11.82;53.89
70676;DHT22;59069;52.242;20.900;2023-03-20T08:01:42;11.97;54.24
70676;DHT22;59069;52.242;20.900;2023-03-20T08:04:08;12.14;54.15
70676;DHT22;59069;52.242;20.900;2023-03-20T08:06:33;12.38;54.34
70676;DHT22;59069;52.242;20.900;2023-03-20T08:08:59;12.69;54.10
70676;DHT22;59069;52.242;20.900;2023-03-20T08:11:26;13.03;53.61
70676;DHT22;59069;52.242;20.900;2023-03-20T08:13:51;13.47;56.02
70676;DHT22;59069;52.242;20.900;2023-03-20T08:16:17;14.01;58.56
70676;DHT22;59069;52.242;20.900;2023-03-20T08:18:42;14.53;55.66
70676;DHT22;59069;52.242;20.900;2023-03-20T08:21:08;15.21;52.11
70676;DHT22;59069;52.242;20.900;2023-03-20T08:23:33;16.07;49.07
70676;DHT22;59069;52.242;20.900;2023-03-20T08:25:59;16.96;46.03
70676;DHT22;59069;52.242;20.900;2023-03-20T08:28:24;17.81;42.68
70676;DHT22;59069;52.242;20.900;2023-03-20T08:30:50;18.58;39.75
70676;DHT22;59069;52.242;20.900;2023-03-20T08:33:17;19.16;38.52
70676;DHT22;59069;52.242;20.900;2023-03-20T08:35:43;19.58;36.38
70676;DHT22;59069;52.242;20.900;2023-03-20T08:38:11;20.01;36.58
70676;DHT22;59069;52.242;20.900;2023-03-20T08:40:41;20.49;35.55
70676;DHT22;59069;52.242;20.900;2023-03-20T08:43:07;20.95;35.33
70676;DHT22;59069;52.242;20.900;2023-03-20T08:45:32;21.49;33.34
70676;DHT22;59069;52.242;20.900;2023-03-20T08:47:58;21.90;33.06
70676;DHT22;59069;52.242;20.900;2023-03-20T08:50:24;22.26;31.43
70676;DHT22;59069;52.242;20.900;2023-03-20T08:52:49;22.53;30.77
70676;DHT22;59069;52.242;20.900;2023-03-20T08:55:15;22.83;31.02
70676;DHT22;59069;52.242;20.900;2023-03-20T08:57:41;23.28;30.44
70676;DHT22;59069;52.242;20.900;2023-03-20T09:00:08;23.57;29.60
70676;DHT22;59069;52.242;20.900;2023-03-20T09:02:35;23.81;27.76
70676;DHT22;59069;52.242;20.900;2023-03-20T09:05:01;23.92;26.50
70676;DHT22;59069;52.242;20.900;2023-03-20T09:07:26;24.03;26.78
70676;DHT22;59069;52.242;20.900;2023-03-20T09:09:52;23.73;26.03
70676;DHT22;59069;52.242;20.900;2023-03-20T09:12:17;23.15;26.48
70676;DHT22;59069;52.242;20.900;2023-03-20T09:14:43;22.50;27.38
70676;DHT22;59069;52.242;20.900;2023-03-20T09:17:09;22.07;28.91
70676;DHT22;59069;52.242;20.900;2023-03-20T09:19:34;21.65;29.69
70676;DHT22;59069;52.242;20.900;2023-03-20T09:22:02;21.08;29.36
70676;DHT22;59069;52.242;20.900;2023-03-20T09:24:27;20.43;30.42
70676;DHT22;59069;52.242;20.900;2023-03-20T09:26:53;19.86;31.80
70676;DHT22;59069;52.242;20.900;2023-03-20T09:29:19;19.58;33.56
70676;DHT22;59069;52.242;20.900;2023-03-20T09:31:45;19.53;33.59
70676;DHT22;59069;52.242;20.900;2023-03-20T09:34:10;19.35;33.21
70676;DHT22;59069;52.242;20.900;2023-03-20T09:36:36;19.14;33.76
70676;DHT22;59069;52.242;20.900;2023-03-20T09:39:02;19.10;34.81
70676;DHT22;59069;52.242;20.900;2023-03-20T09:41:28;19.07;34.39
70676;DHT22;59069;52.242;20.900;2023-03-20T09:44:11;18.99;34.29
70676;DHT22;59069;52.242;20.900;2023-03-20T09:46:56;18.76;35.25
70676;DHT22;59069;52.242;20.900;2023-03-20T09:49:55;18.66;35.94
70676;DHT22;59069;52.242;20.900;2023-03-20T09:52:35;18.55;35.68
70676;DHT22;59069;52.242;20.900;2023-03-20T09:55:14;18.34;35.92
70676;DHT22;59069;52.242;20.900;2023-03-20T09:57:43;18.08;35.94
70676;DHT22;59069;52.242;20.900;2023-03-20T10:00:27;17.81;36.92
70676;DHT22;59069;52.242;20.900;2023-03-20T10:03:16;17.54;37.71
70676;DHT22;59069;52.242;20.900;2023-03-20T10:05:46;17.35;37.97
70676;DHT22;59069;52.242;20.900;2023-03-20T10:08:15;17.18;38.66
70676;DHT22;59069;52.242;20.900;2023-03-20T10:13:38;16.78;40.38
70676;DHT22;59069;52.242;20.900;2023-03-20T10:18:45;16.57;41.51
70676;DHT22;59069;52.242;20.900;2023-03-20T10:21:16;16.46;41.94
70676;DHT22;59069;52.242;20.900;2023-03-20T10:23:49;16.38;42.95
70676;DHT22;59069;52.242;20.900;2023-03-20T10:26:21;16.44;44.70
70676;DHT22;59069;52.242;20.900;2023-03-20T10:34:29;16.92;43.87
70676;DHT22;59069;52.242;20.900;2023-03-20T10:42:26;17.42;43.49
70676;DHT22;59069;52.242;20.900;2023-03-20T10:45:05;17.77;43.48
70676;DHT22;59069;52.242;20.900;2023-03-20T10:47:35;18.27;40.06
70676;DHT22;59069;52.242;20.900;2023-03-20T10:50:10;18.41;38.89
70676;DHT22;59069;52.242;20.900;2023-03-20T10:52:40;18.24;38.09
70676;DHT22;59069;52.242;20.900;2023-03-20T10:55:13;18.01;39.08
70676;DHT22;59069;52.242;20.900;2023-03-20T10:57:44;17.84;40.25
70676;DHT22;59069;52.242;20.900;2023-03-20T11:00:24;17.70;40.93
70676;DHT22;59069;52.242;20.900;2023-03-20T11:02:51;17.57;41.81
70676;DHT22;59069;52.242;20.900;2023-03-20T11:05:31;17.39;42.29
70676;DHT22;59069;52.242;20.900;2023-03-20T11:08:06;17.29;42.38
70676;DHT22;59069;52.242;20.900;2023-03-20T11:10:34;17.20;43.09
70676;DHT22;59069;52.242;20.900;2023-03-20T11:15:53;17.25;43.12
70676;DHT22;59069;52.242;20.900;2023-03-20T11:18:19;17.18;42.69
70676;DHT22;59069;52.242;20.900;2023-03-20T11:20:55;17.12;42.76
70676;DHT22;59069;52.242;20.900;2023-03-20T11:23:27;17.09;43.03
70676;DHT22;59069;52.242;20.900;2023-03-20T11:26:03;17.09;42.84
70676;DHT22;59069;52.242;20.900;2023-03-20T11:28:32;17.08;43.09
70676;DHT22;59069;52.242;20.900;2023-03-20T11:31:03;17.14;43.05
70676;DHT22;59069;52.242;20.900;2023-03-20T11:33:32;17.08;42.51
70676;DHT22;59069;52.242;20.900;2023-03-20T11:35:58;16.99;42.14
70676;DHT22;59069;52.242;20.900;2023-03-20T11:38:24;16.95;42.30
70676;DHT22;59069;52.242;20.900;2023-03-20T11:40:50;16.85;42.74
70676;DHT22;59069;52.242;20.900;2023-03-20T11:43:24;16.74;42.87
70676;DHT22;59069;52.242;20.900;2023-03-20T11:45:56;16.70;43.40
70676;DHT22;59069;52.242;20.900;2023-03-20T11:48:37;16.74;43.82
70676;DHT22;59069;52.242;20.900;2023-03-20T11:51:06;16.81;43.27
70676;DHT22;59069;52.242;20.900;2023-03-20T11:53:37;16.89;42.86
70676;DHT22;59069;52.242;20.900;2023-03-20T12:01:42;17.35;42.63
70676;DHT22;59069;52.242;20.900;2023-03-20T12:04:30;17.52;41.75
70676;DHT22;59069;52.242;20.900;2023-03-20T12:07:33;17.73;41.43
70676;DHT22;59069;52.242;20.900;2023-03-20T12:10:10;17.89;41.29
70676;DHT22;59069;52.242;20.900;2023-03-20T12:12:38;17.94;41.00
70676;DHT22;59069;52.242;20.900;2023-03-20T12:20:38;18.27;40.69
70676;DHT22;59069;52.242;20.900;2023-03-20T12:25:48;17.98;38.22
70676;DHT22;59069;52.242;20.900;2023-03-20T12:28:24;17.80;39.57
70676;DHT22;59069;52.242;20.900;2023-03-20T12:30:56;17.57;41.59
70676;DHT22;59069;52.242;20.900;2023-03-20T12:36:20;17.35;42.58
70676;DHT22;59069;52.242;20.900;2023-03-20T12:38:50;17.09;42.47
70676;DHT22;59069;52.242;20.900;2023-03-20T12:46:47;16.34;44.99
70676;DHT22;59069;52.242;20.900;2023-03-20T12:49:18;16.23;45.64
70676;DHT22;59069;52.242;20.900;2023-03-20T12:54:32;16.19;46.62
70676;DHT22;59069;52.242;20.900;2023-03-20T13:07:42;16.92;46.43
70676;DHT22;59069;52.242;20.900;2023-03-20T13:10:21;16.94;46.72
70676;DHT22;59069;52.242;20.900;2023-03-20T13:13:02;16.78;46.77
70676;DHT22;59069;52.242;20.900;2023-03-20T13:18:10;16.26;48.49
70676;DHT22;59069;52.242;20.900;2023-03-20T13:20:54;16.02;49.55
70676;DHT22;59069;52.242;20.900;2023-03-20T13:23:31;15.82;50.43
70676;DHT22;59069;52.242;20.900;2023-03-20T13:29:00;15.44;52.22
70676;DHT22;59069;52.242;20.900;2023-03-20T13:34:56;15.14;54.06
70676;DHT22;59069;52.242;20.900;2023-03-20T13:37:30;15.06;55.03
70676;DHT22;59069;52.242;20.900;2023-03-20T13:42:42;14.83;56.39
70676;DHT22;59069;52.242;20.900;2023-03-20T13:45:24;14.72;57.25
70676;DHT22;59069;52.242;20.900;2023-03-20T13:47:52;14.66;58.09
70676;DHT22;59069;52.242;20.900;2023-03-20T13:50:41;14.55;58.91
70676;DHT22;59069;52.242;20.900;2023-03-20T13:56:53;14.37;60.67
70676;DHT22;59069;52.242;20.900;2023-03-20T13:59:35;14.30;61.29
70676;DHT22;59069;52.242;20.900;2023-03-20T14:05:18;14.25;62.24
70676;DHT22;59069;52.242;20.900;2023-03-20T14:07:46;14.26;62.74
70676;DHT22;59069;52.242;20.900;2023-03-20T14:13:11;14.30;63.43
70676;DHT22;59069;52.242;20.900;2023-03-20T14:15:39;14.35;63.53
70676;DHT22;59069;52.242;20.900;2023-03-20T14:18:16;14.37;63.54
70676;DHT22;59069;52.242;20.900;2023-03-20T14:20:49;14.43;63.71
70676;DHT22;59069;52.242;20.900;2023-03-20T14:23:17;14.45;63.69
70676;DHT22;59069;52.242;20.900;2023-03-20T14:25:46;14.42;63.72
70676;DHT22;59069;52.242;20.900;2023-03-20T14:30:46;14.42;64.20
70676;DHT22;59069;52.242;20.900;2023-03-20T14:35:44;14.32;64.89
70676;DHT22;59069;52.242;20.900;2023-03-20T14:38:20;14.26;65.36
70676;DHT22;59069;52.242;20.900;2023-03-20T14:46:24;14.12;67.20
70676;DHT22;59069;52.242;20.900;2023-03-20T14:48:53;14.02;67.72
70676;DHT22;59069;52.242;20.900;2023-03-20T14:53:52;13.86;68.56
70676;DHT22;59069;52.242;20.900;2023-03-20T14:56:26;13.81;69.07
70676;DHT22;59069;52.242;20.900;2023-03-20T14:59:02;13.71;69.49
70676;DHT22;59069;52.242;20.900;2023-03-20T15:07:03;13.50;70.36
70676;DHT22;59069;52.242;20.900;2023-03-20T15:09:30;13.44;70.44
70676;DHT22;59069;52.242;20.900;2023-03-20T15:11:57;13.42;70.49
70676;DHT22;59069;52.242;20.900;2023-03-20T15:14:43;13.40;70.39
70676;DHT22;59069;52.242;20.900;2023-03-20T15:17:46;13.40;70.43
70676;DHT22;59069;52.242;20.900;2023-03-20T15:20:20;13.37;70.59
70676;DHT22;59069;52.242;20.900;2023-03-20T15:22:57;13.28;70.87
70676;DHT22;59069;52.242;20.900;2023-03-20T15:25:48;13.24;71.15
70676;DHT22;59069;52.242;20.900;2023-03-20T15:28:15;13.13;71.36
70676;DHT22;59069;52.242;20.900;2023-03-20T15:30:42;13.03;71.34
70676;DHT22;59069;52.242;20.900;2023-03-20T15:33:38;12.89;71.54
70676;DHT22;59069;52.242;20.900;2023-03-20T15:36:12;12.82;71.73
70676;DHT22;59069;52.242;20.900;2023-03-20T15:38:39;12.76;72.03
70676;DHT22;59069;52.242;20.900;2023-03-20T15:41:06;12.69;72.44
70676;DHT22;59069;52.242;20.900;2023-03-20T15:43:33;12.61;72.84
70676;DHT22;59069;52.242;20.900;2023-03-20T15:46:03;12.51;73.25
70676;DHT22;59069;52.242;20.900;2023-03-20T15:48:29;12.42;73.62
70676;DHT22;59069;52.242;20.900;2023-03-20T15:50:58;12.37;73.89
70676;DHT22;59069;52.242;20.900;2023-03-20T15:53:36;12.28;74.10
70676;DHT22;59069;52.242;20.900;2023-03-20T15:56:27;12.20;74.32
70676;DHT22;59069;52.242;20.900;2023-03-20T15:58:52;12.11;74.54
70676;DHT22;59069;52.242;20.900;2023-03-20T16:01:24;12.07;74.73
70676;DHT22;59069;52.242;20.900;2023-03-20T16:03:51;11.98;75.04
70676;DHT22;59069;52.242;20.900;2023-03-20T16:06:19;11.91;75.37
70676;DHT22;59069;52.242;20.900;2023-03-20T16:08:57;11.90;75.62
70676;DHT22;59069;52.242;20.900;2023-03-20T16:11:24;11.86;75.79
70676;DHT22;59069;52.242;20.900;2023-03-20T16:13:50;11.82;76.07
70676;DHT22;59069;52.242;20.900;2023-03-20T16:16:22;11.76;76.42
70676;DHT22;59069;52.242;20.900;2023-03-20T16:18:49;11.83;76.86
70676;DHT22;59069;52.242;20.900;2023-03-20T16:21:24;11.77;76.69
70676;DHT22;59069;52.242;20.900;2023-03-20T16:23:54;11.72;76.81
70676;DHT22;59069;52.242;20.900;2023-03-20T16:26:23;11.63;77.13
70676;DHT22;59069;52.242;20.900;2023-03-20T16:28:59;11.56;77.57
70676;DHT22;59069;52.242;20.900;2023-03-20T16:31:34;11.49;77.88
70676;DHT22;59069;52.242;20.900;2023-03-20T16:34:06;11.40;78.23
70676;DHT22;59069;52.242;20.900;2023-03-20T16:36:36;11.36;78.57
70676;DHT22;59069;52.242;20.900;2023-03-20T16:39:08;11.33;78.82
70676;DHT22;59069;52.242;20.900;2023-03-20T16:41:36;11.26;79.08
70676;DHT22;59069;52.242;20.900;2023-03-20T16:44:17;11.22;79.37
70676;DHT22;59069;52.242;20.900;2023-03-20T16:46:59;11.16;79.74
70676;DHT22;59069;52.242;20.900;2023-03-20T16:50:01;11.09;80.13
70676;DHT22;59069;52.242;20.900;2023-03-20T16:52:30;11.07;80.36
70676;DHT22;59069;52.242;20.900;2023-03-20T16:54:57;11.04;80.62
70676;DHT22;59069;52.242;20.900;2023-03-20T16:57:24;11.01;80.88
70676;DHT22;59069;52.242;20.900;2023-03-20T16:59:52;10.95;81.08
70676;DHT22;59069;52.242;20.900;2023-03-20T17:02:29;10.90;81.31
70676;DHT22;59069;52.242;20.900;2023-03-20T17:05:01;10.85;81.49
70676;DHT22;59069;52.242;20.900;2023-03-20T17:07:27;10.82;81.68
70676;DHT22;59069;52.242;20.900;2023-03-20T17:12:43;10.78;81.87
70676;DHT22;59069;52.242;20.900;2023-03-20T17:15:21;10.72;82.03
70676;DHT22;59069;52.242;20.900;2023-03-20T17:17:47;10.71;82.17
70676;DHT22;59069;52.242;20.900;2023-03-20T17:20:23;10.64;82.20
70676;DHT22;59069;52.242;20.900;2023-03-20T17:22:50;10.63;82.20
70676;DHT22;59069;52.242;20.900;2023-03-20T17:25:15;10.59;82.25
70676;DHT22;59069;52.242;20.900;2023-03-20T17:27:41;10.51;82.35
70676;DHT22;59069;52.242;20.900;2023-03-20T17:30:18;10.49;82.50
70676;DHT22;59069;52.242;20.900;2023-03-20T17:32:44;10.44;82.70
70676;DHT22;59069;52.242;20.900;2023-03-20T17:35:10;10.40;82.96
70676;DHT22;59069;52.242;20.900;2023-03-20T17:37:36;10.37;83.09
70676;DHT22;59069;52.242;20.900;2023-03-20T17:40:01;10.36;83.16
70676;DHT22;59069;52.242;20.900;2023-03-20T17:42:28;10.33;83.33
70676;DHT22;59069;52.242;20.900;2023-03-20T17:44:57;10.30;83.46
70676;DHT22;59069;52.242;20.900;2023-03-20T17:47:25;10.28;83.67
70676;DHT22;59069;52.242;20.900;2023-03-20T17:49:51;10.28;83.82
70676;DHT22;59069;52.242;20.900;2023-03-20T17:52:20;10.23;84.12
70676;DHT22;59069;52.242;20.900;2023-03-20T17:54:47;10.23;84.28
70676;DHT22;59069;52.242;20.900;2023-03-20T17:57:33;10.20;84.39
70676;DHT22;59069;52.242;20.900;2023-03-20T18:00:01;10.19;84.49
70676;DHT22;59069;52.242;20.900;2023-03-20T18:02:27;10.17;84.62
70676;DHT22;59069;52.242;20.900;2023-03-20T18:04:52;10.17;84.63